createdAt,value
2022-08-17T00:01:51.954Z,96535.91
2022-08-17T00:04:19.877Z,96595.25
2022-08-17T00:06:49.142Z,96584.41
2022-08-17T00:09:18.786Z,96582.31
2022-08-17T00:12:41.741Z,96584.22
2022-08-17T00:14:36.044Z,96586.13
2022-08-17T00:17:04.764Z,96571.88
2022-08-17T00:19:32.861Z,96583.94
2022-08-17T00:22:31.451Z,96584.09
2022-08-17T00:24:50.330Z,96596.09
2022-08-17T00:27:17.515Z,96586.47
2022-08-17T00:29:45.964Z,96581.75
2022-08-17T00:33:14.210Z,96572.81
2022-08-17T00:35:05.461Z,96576.34
2022-08-17T00:37:32.201Z,96584.09
2022-08-17T00:39:59.007Z,96581.38
2022-08-17T00:42:30.457Z,96581.47
2022-08-17T00:44:58.414Z,96569.59
2022-08-17T00:47:25.373Z,96576.50
2022-08-17T00:49:52.386Z,96581.47
2022-08-17T00:52:23.074Z,96589.84
2022-08-17T00:54:52.376Z,96581.47
2022-08-17T00:57:23.443Z,96572.38
2022-08-17T01:00:02.231Z,96557.69
2022-08-17T01:02:42.196Z,96559.19
2022-08-17T01:05:14.251Z,96584.16
2022-08-17T01:07:41.930Z,96591.97
2022-08-17T01:10:58.157Z,96565.44
2022-08-17T01:12:58.322Z,96569.78
2022-08-17T01:15:25.425Z,96574.69
2022-08-17T01:17:52.194Z,96573.88
2022-08-17T01:20:19.101Z,96574.59
2022-08-17T01:22:45.893Z,96574.63
2022-08-17T01:25:12.894Z,96562.78
2022-08-17T01:27:39.796Z,96569.59
2022-08-17T01:30:56.850Z,96567.16
2022-08-17T01:32:56.586Z,96552.44
2022-08-17T01:35:23.303Z,96540.34
2022-08-17T01:37:50.414Z,96530.59
2022-08-17T01:40:23.871Z,96529.94
2022-08-17T01:43:10.766Z,96537.47
2022-08-17T01:45:43.206Z,96537.88
2022-08-17T01:48:10.795Z,96538.41
2022-08-17T01:50:38.061Z,96541.16
2022-08-17T01:53:08.518Z,96546.78
2022-08-17T01:55:43.140Z,96553.75
2022-08-17T01:58:10.074Z,96554.91
2022-08-17T02:01:00.140Z,96561.44
2022-08-17T02:03:25.539Z,96559.28
2022-08-17T02:05:53.246Z,96566.31
2022-08-17T02:08:21.309Z,96567.16
2022-08-17T02:11:11.711Z,96556.06
2022-08-17T02:13:39.205Z,96562.34
2022-08-17T02:16:05.996Z,96588.75
2022-08-17T02:18:32.853Z,96594.06
2022-08-17T02:20:59.997Z,96595.28
2022-08-17T02:23:33.948Z,96600.13
2022-08-17T02:26:02.318Z,96600.91
2022-08-17T02:28:29.384Z,96582.94
2022-08-17T02:31:00.666Z,96575.44
2022-08-17T02:33:43.285Z,96568.53
2022-08-17T02:36:12.154Z,96567.16
2022-08-17T02:38:39.972Z,96562.34
2022-08-17T02:41:06.865Z,96556.00
2022-08-17T02:43:33.677Z,96555.16
2022-08-17T02:46:00.460Z,96556.44
2022-08-17T02:48:30.813Z,96567.47
2022-08-17T02:50:59.047Z,96573.63
2022-08-17T02:53:26.143Z,96565.97
2022-08-17T02:55:53.112Z,96564.63
2022-08-17T02:58:29.608Z,96556.22
2022-08-17T03:01:05.031Z,96553.28
2022-08-17T03:03:32.299Z,96549.81
2022-08-17T03:05:59.060Z,96547.72
2022-08-17T03:08:25.866Z,96548.31
2022-08-17T03:10:52.967Z,96538.63
2022-08-17T03:13:20.073Z,96549.13
2022-08-17T03:15:48.320Z,96538.75
2022-08-17T03:18:24.965Z,96525.66
2022-08-17T03:20:54.612Z,96520.13
2022-08-17T03:23:24.001Z,96524.91
2022-08-17T03:25:53.205Z,96528.25
2022-08-17T03:28:21.671Z,96533.03
2022-08-17T03:30:48.824Z,96530.91
2022-08-17T03:33:16.227Z,96526.03
2022-08-17T03:35:43.535Z,96521.88
2022-08-17T03:38:11.407Z,96525.38
2022-08-17T03:40:56.853Z,96528.84
2022-08-17T03:43:27.635Z,96532.94
2022-08-17T03:46:28.293Z,96527.22
2022-08-17T03:49:18.614Z,96516.13
2022-08-17T03:52:03.872Z,96520.19
2022-08-17T03:54:49.363Z,96516.72
2022-08-17T03:57:16.628Z,96521.56
2022-08-17T03:59:45.102Z,96519.50
2022-08-17T04:02:17.895Z,96520.03
2022-08-17T04:04:44.751Z,96515.06
2022-08-17T04:07:11.591Z,96502.63
2022-08-17T04:09:38.330Z,96501.34
2022-08-17T04:12:05.720Z,96503.38
2022-08-17T04:14:49.491Z,96506.72
2022-08-17T04:17:19.925Z,96510.22
2022-08-17T04:19:46.894Z,96516.34
2022-08-17T04:22:32.479Z,96514.78
2022-08-17T04:25:16.165Z,96503.53
2022-08-17T04:27:42.903Z,96504.31
2022-08-17T04:30:10.467Z,96491.75
2022-08-17T04:33:11.006Z,96498.69
2022-08-17T04:35:41.161Z,96499.38
2022-08-17T04:38:09.218Z,96499.38
2022-08-17T04:40:54.962Z,96498.69
2022-08-17T04:43:23.794Z,96495.19
2022-08-17T04:45:59.101Z,96502.09
2022-08-17T04:48:36.410Z,96516.69
2022-08-17T04:51:09.725Z,96521.47
2022-08-17T04:53:37.701Z,96516.47
2022-08-17T04:56:04.862Z,96527.53
2022-08-17T04:58:31.635Z,96524.59
2022-08-17T05:00:58.407Z,96524.53
2022-08-17T05:03:25.359Z,96521.03
2022-08-17T05:05:52.067Z,96530.75
2022-08-17T05:08:20.052Z,96533.63
2022-08-17T05:10:47.717Z,96520.50
2022-08-17T05:13:18.044Z,96523.34
2022-08-17T05:15:45.378Z,96530.56
2022-08-17T05:18:16.040Z,96524.16
2022-08-17T05:20:43.064Z,96506.69
2022-08-17T05:23:12.631Z,96511.47
2022-08-17T05:25:48.246Z,96508.66
2022-08-17T05:28:18.669Z,96518.41
2022-08-17T05:30:50.490Z,96507.84
2022-08-17T05:33:21.066Z,96509.16
2022-08-17T05:35:50.221Z,96515.00
2022-08-17T05:38:19.377Z,96505.25
2022-08-17T05:40:46.871Z,96490.94
2022-08-17T05:43:17.212Z,96494.66
2022-08-17T05:45:55.703Z,96497.84
2022-08-17T05:48:39.611Z,96499.91
2022-08-17T05:51:19.303Z,96490.88
2022-08-17T05:53:46.053Z,96492.97
2022-08-17T05:56:30.069Z,96491.69
2022-08-17T05:59:34.313Z,96478.88
2022-08-17T06:02:19.795Z,96477.16
2022-08-17T06:05:27.735Z,96465.81
2022-08-17T06:07:57.038Z,96465.56
2022-08-17T06:10:43.923Z,96459.19
2022-08-17T06:13:22.547Z,96457.44
2022-08-17T06:16:04.415Z,96460.03
2022-08-17T06:18:59.942Z,96453.66
2022-08-17T06:21:32.117Z,96457.50
2022-08-17T06:24:07.498Z,96457.84
2022-08-17T06:26:42.998Z,96469.78
2022-08-17T06:29:22.384Z,96476.88
2022-08-17T06:31:50.117Z,96456.06
2022-08-17T06:34:16.868Z,96464.50
2022-08-17T06:37:31.701Z,96477.06
2022-08-17T06:40:22.176Z,96487.25
2022-08-17T06:43:06.112Z,96492.81
2022-08-17T06:45:40.406Z,96497.09
2022-08-17T06:48:24.418Z,96503.72
2022-08-17T06:51:04.957Z,96501.38
2022-08-17T06:53:45.586Z,96507.13
2022-08-17T06:56:17.721Z,96506.09
2022-08-17T06:58:45.276Z,96518.22
2022-08-17T07:01:21.561Z,96523.75
2022-08-17T07:03:54.795Z,96529.31
2022-08-17T07:06:43.722Z,96532.13
2022-08-17T07:09:14.950Z,96545.94
2022-08-17T07:11:47.417Z,96552.03
2022-08-17T07:14:29.531Z,96547.69
2022-08-17T07:16:58.561Z,96557.34
2022-08-17T07:19:32.705Z,96556.38
2022-08-17T07:22:25.181Z,96557.47
2022-08-17T07:25:09.750Z,96566.94
2022-08-17T07:27:42.054Z,96573.50
2022-08-17T07:30:12.430Z,96577.94
2022-08-17T07:32:46.523Z,96587.22
2022-08-17T07:35:44.362Z,96588.84
2022-08-17T07:38:26.926Z,96594.56
2022-08-17T07:41:03.495Z,96594.72
2022-08-17T07:43:33.078Z,96596.19
2022-08-17T07:46:19.926Z,96600.50
2022-08-17T07:48:50.330Z,96606.03
2022-08-17T07:51:32.389Z,96612.78
2022-08-17T07:54:14.110Z,96614.09
2022-08-17T07:56:44.748Z,96601.72
2022-08-17T07:59:16.992Z,96620.69
2022-08-17T08:02:17.199Z,96640.84
2022-08-17T08:05:03.587Z,96644.56
2022-08-17T08:07:43.551Z,96642.09
2022-08-17T08:10:27.944Z,96640.91
2022-08-17T08:13:08.577Z,96661.34
2022-08-17T08:15:53.578Z,96668.84
2022-08-17T08:18:53.754Z,96667.41
2022-08-17T08:21:18.611Z,96664.66
2022-08-17T08:23:53.268Z,96655.53
2022-08-17T08:26:26.471Z,96657.66
2022-08-17T08:29:29.374Z,96658.50
2022-08-17T08:32:27.154Z,96661.25
2022-08-17T08:35:06.863Z,96657.06
2022-08-17T08:37:52.159Z,96665.56
2022-08-17T08:40:31.001Z,96657.94
2022-08-17T08:43:16.628Z,96655.88
2022-08-17T08:46:10.120Z,96641.78
2022-08-17T08:48:57.061Z,96642.88
2022-08-17T08:51:56.748Z,96643.25
2022-08-17T08:54:44.319Z,96627.00
2022-08-17T08:57:26.710Z,96630.22
2022-08-17T08:59:57.806Z,96649.66
2022-08-17T09:02:24.858Z,96647.50
2022-08-17T09:05:15.357Z,96647.50
2022-08-17T09:08:16.289Z,96653.91
2022-08-17T09:10:52.167Z,96659.50
2022-08-17T09:13:43.374Z,96665.97
2022-08-17T09:16:17.457Z,96664.81
2022-08-17T09:19:01.796Z,96674.13
2022-08-17T09:21:38.227Z,96672.22
2022-08-17T09:24:24.223Z,96679.34
2022-08-17T09:27:01.094Z,96686.59
2022-08-17T09:29:35.201Z,96690.22
2022-08-17T09:32:20.235Z,96691.00
2022-08-17T09:34:53.603Z,96692.53
2022-08-17T09:37:37.940Z,96698.22
2022-08-17T09:40:16.444Z,96697.63
2022-08-17T09:43:08.362Z,96697.69
2022-08-17T09:45:42.665Z,96692.78
2022-08-17T09:48:25.231Z,96685.78
2022-08-17T09:51:12.804Z,96674.53
2022-08-17T09:53:40.034Z,96669.56
2022-08-17T09:56:13.066Z,96665.44
2022-08-17T09:59:07.003Z,96675.97
2022-08-17T10:01:42.668Z,96676.03
2022-08-17T10:04:43.474Z,96675.34
2022-08-17T10:07:19.363Z,96667.63
2022-08-17T10:09:56.105Z,96657.81
2022-08-17T10:12:32.385Z,96649.44
2022-08-17T10:15:25.075Z,96648.72
2022-08-17T10:18:24.615Z,96648.00
2022-08-17T10:21:23.783Z,96649.47
2022-08-17T10:24:26.661Z,96651.53
2022-08-17T10:26:56.460Z,96638.22
2022-08-17T10:29:49.744Z,96652.94
2022-08-17T10:32:35.965Z,96641.72
2022-08-17T10:35:39.929Z,96636.06
2022-08-17T10:38:24.691Z,96634.69
2022-08-17T10:41:04.624Z,96635.41
2022-08-17T10:44:39.398Z,96633.28
2022-08-17T10:47:11.746Z,96632.53
2022-08-17T10:49:49.458Z,96636.72
2022-08-17T10:52:28.277Z,96631.13
2022-08-17T10:54:58.006Z,96637.38
2022-08-17T10:57:34.455Z,96636.69
2022-08-17T11:00:10.960Z,96633.94
2022-08-17T11:02:47.964Z,96628.34
2022-08-17T11:05:43.817Z,96626.91
2022-08-17T11:08:29.380Z,96630.47
2022-08-17T11:11:08.265Z,96636.78
2022-08-17T11:13:53.334Z,96637.50
2022-08-17T11:16:20.223Z,96629.06
2022-08-17T11:19:05.974Z,96624.88
2022-08-17T11:21:58.253Z,96621.31
2022-08-17T11:24:47.941Z,96622.69
2022-08-17T11:27:33.819Z,96624.75
2022-08-17T11:30:02.898Z,96624.69
2022-08-17T11:32:38.863Z,96615.50
2022-08-17T11:35:20.735Z,96616.72
2022-08-17T11:37:50.452Z,96613.81
2022-08-17T11:40:33.296Z,96613.06
2022-08-17T11:43:13.854Z,96622.94
2022-08-17T11:46:10.469Z,96614.47
2022-08-17T11:49:18.631Z,96604.59
2022-08-17T11:52:11.725Z,96599.03
2022-08-17T11:54:48.042Z,96604.72
2022-08-17T11:57:26.781Z,96608.13
2022-08-17T12:00:07.307Z,96603.13
2022-08-17T12:02:38.878Z,96610.56
2022-08-17T12:05:22.955Z,96600.53
2022-08-17T12:08:01.501Z,96598.75
2022-08-17T12:10:34.451Z,96593.06
2022-08-17T12:13:07.339Z,96588.03
2022-08-17T12:15:41.535Z,96591.34
2022-08-17T12:18:09.101Z,96593.25
2022-08-17T12:20:42.541Z,96586.00
2022-08-17T12:23:23.820Z,96593.53
2022-08-17T12:25:59.409Z,96600.47
2022-08-17T12:28:29.503Z,96602.00
2022-08-17T12:31:44.272Z,96595.53
2022-08-17T12:34:26.990Z,96593.81
2022-08-17T12:37:02.378Z,96597.03
2022-08-17T12:39:30.488Z,96591.84
2022-08-17T12:42:02.758Z,96588.03
2022-08-17T12:44:35.850Z,96587.59
2022-08-17T12:47:22.564Z,96578.97
2022-08-17T12:49:52.794Z,96572.53
2022-08-17T12:52:19.382Z,96568.50
2022-08-17T12:55:05.773Z,96586.13
2022-08-17T12:57:37.887Z,96583.28
2022-08-17T13:00:34.362Z,96571.66
2022-08-17T13:03:08.078Z,96575.16
2022-08-17T13:05:44.150Z,96584.00
2022-08-17T13:08:20.194Z,96575.22
2022-08-17T13:11:13.566Z,96573.91
2022-08-17T13:13:42.719Z,96567.56
2022-08-17T13:16:12.477Z,96570.50
2022-08-17T13:18:45.514Z,96570.53
2022-08-17T13:21:22.091Z,96563.31
2022-08-17T13:23:59.770Z,96562.63
2022-08-17T13:26:45.483Z,96570.34
2022-08-17T13:29:27.469Z,96571.59
2022-08-17T13:32:04.106Z,96570.19
2022-08-17T13:34:49.579Z,96570.97
2022-08-17T13:37:25.489Z,96564.69
2022-08-17T13:39:55.418Z,96563.38
2022-08-17T13:42:52.967Z,96566.31
2022-08-17T13:45:34.938Z,96564.13
2022-08-17T13:48:13.677Z,96558.50
2022-08-17T13:50:42.690Z,96545.59
2022-08-17T13:53:29.993Z,96550.84
2022-08-17T13:56:05.614Z,96554.16
2022-08-17T13:58:39.507Z,96551.84
2022-08-17T14:01:28.303Z,96557.00
2022-08-17T14:03:56.030Z,96543.09
2022-08-17T14:06:51.765Z,96538.47
2022-08-17T14:09:11.212Z,96542.03
2022-08-17T14:11:38.266Z,96539.91
2022-08-17T14:14:05.141Z,96545.69
2022-08-17T14:16:32.130Z,96555.47
2022-08-17T14:18:58.942Z,96541.88
2022-08-17T14:21:25.655Z,96540.03
2022-08-17T14:23:54.476Z,96536.63
2022-08-17T14:26:21.765Z,96541.88
2022-08-17T14:28:56.618Z,96536.78
2022-08-17T14:31:25.010Z,96526.94
2022-08-17T14:33:52.156Z,96530.50
2022-08-17T14:36:18.871Z,96537.00
2022-08-17T14:38:45.553Z,96528.94
2022-08-17T14:41:12.386Z,96529.34
2022-08-17T14:43:39.896Z,96540.97
2022-08-17T14:46:06.898Z,96544.25
2022-08-17T14:48:35.752Z,96544.00
2022-08-17T14:51:04.296Z,96554.16
2022-08-17T14:53:31.409Z,96550.34
2022-08-17T14:55:58.527Z,96546.41
2022-08-17T14:58:26.022Z,96549.31
2022-08-17T15:00:53.414Z,96549.84
2022-08-17T15:03:20.382Z,96552.81
2022-08-17T15:05:48.568Z,96551.69
2022-08-17T15:08:16.723Z,96556.47
2022-08-17T15:10:44.743Z,96553.72
2022-08-17T15:13:22.219Z,96548.16
2022-08-17T15:15:49.367Z,96545.03
2022-08-17T15:18:16.164Z,96544.03
2022-08-17T15:20:44.773Z,96543.41
2022-08-17T15:23:15.503Z,96559.69
2022-08-17T15:25:43.772Z,96560.13
2022-08-17T15:28:10.603Z,96555.59
2022-08-17T15:30:37.999Z,96539.88
2022-08-17T15:33:04.793Z,96541.63
2022-08-17T15:35:33.811Z,96546.00
2022-08-17T15:38:09.915Z,96541.69
2022-08-17T15:40:41.560Z,96531.06
2022-08-17T15:43:27.344Z,96538.63
2022-08-17T15:46:14.448Z,96538.09
2022-08-17T15:48:42.950Z,96534.03
2022-08-17T15:51:22.788Z,96531.63
2022-08-17T15:53:56.987Z,96538.25
2022-08-17T15:56:25.427Z,96546.25
2022-08-17T15:58:53.823Z,96547.25
2022-08-17T16:02:14.281Z,96549.88
2022-08-17T16:04:30.106Z,96544.59
2022-08-17T16:06:56.958Z,96536.38
2022-08-17T16:09:23.608Z,96540.75
2022-08-17T16:11:53.886Z,96547.25
2022-08-17T16:14:23.190Z,96543.22
2022-08-17T16:16:50.942Z,96544.75
2022-08-17T16:19:17.788Z,96542.88
2022-08-17T16:21:44.508Z,96551.78
2022-08-17T16:24:13.139Z,96547.63
2022-08-17T16:26:42.222Z,96549.06
2022-08-17T16:29:09.185Z,96554.06
2022-08-17T16:31:37.734Z,96546.38
2022-08-17T16:34:17.857Z,96551.34
2022-08-17T16:36:55.363Z,96535.22
2022-08-17T16:39:29.649Z,96536.06
2022-08-17T16:41:57.293Z,96525.63
2022-08-17T16:44:25.814Z,96525.72
2022-08-17T16:46:53.433Z,96526.53
2022-08-17T16:49:31.915Z,96520.25
2022-08-17T16:52:04.970Z,96521.78
2022-08-17T16:54:35.519Z,96514.16
2022-08-17T16:57:05.232Z,96520.59
2022-08-17T16:59:40.298Z,96522.78
2022-08-17T17:02:12.534Z,96523.53
2022-08-17T17:04:50.374Z,96524.25
2022-08-17T17:07:28.347Z,96526.94
2022-08-17T17:09:55.827Z,96521.94
2022-08-17T17:13:00.824Z,96504.34
2022-08-17T17:15:10.694Z,96497.44
2022-08-17T17:17:39.511Z,96499.56
2022-08-17T17:20:16.834Z,96500.78
2022-08-17T17:23:11.304Z,96507.66
2022-08-17T17:25:48.803Z,96506.47
2022-08-17T17:28:27.663Z,96513.13
2022-08-17T17:31:04.021Z,96505.63
2022-08-17T17:33:37.502Z,96509.31
2022-08-17T17:36:15.924Z,96505.94
2022-08-17T17:38:49.113Z,96508.81
2022-08-17T17:41:26.160Z,96518.72
2022-08-17T17:44:07.513Z,96529.31
2022-08-17T17:46:42.012Z,96528.00
2022-08-17T17:49:14.259Z,96530.81
2022-08-17T17:52:13.170Z,96538.59
2022-08-17T17:55:09.927Z,96539.34
2022-08-17T17:57:52.995Z,96545.69
2022-08-17T18:00:33.638Z,96539.44
2022-08-17T18:03:00.326Z,96540.81
2022-08-17T18:05:49.029Z,96543.63
2022-08-17T18:08:32.427Z,96549.97
2022-08-17T18:11:33.076Z,96545.75
2022-08-17T18:14:25.284Z,96561.16
2022-08-17T18:16:55.904Z,96561.88
2022-08-17T18:19:25.603Z,96568.84
2022-08-17T18:21:56.552Z,96571.59
2022-08-17T18:24:37.909Z,96584.19
2022-08-17T18:27:17.437Z,96585.56
2022-08-17T18:29:45.322Z,96590.44
2022-08-17T18:32:15.827Z,96596.72
2022-08-17T18:34:47.613Z,96599.47
2022-08-17T18:37:31.281Z,96600.13
2022-08-17T18:39:58.085Z,96592.44
2022-08-17T18:42:26.985Z,96597.31
2022-08-17T18:44:55.457Z,96602.19
2022-08-17T18:47:25.527Z,96615.44
2022-08-17T18:50:18.979Z,96618.94
2022-08-17T18:52:48.402Z,96616.09
2022-08-17T18:55:20.838Z,96618.84
2022-08-17T18:57:55.544Z,96632.06
2022-08-17T19:00:41.496Z,96633.41
2022-08-17T19:03:21.738Z,96630.56
2022-08-17T19:05:57.055Z,96630.50
2022-08-17T19:08:30.025Z,96635.38
2022-08-17T19:11:09.802Z,96638.81
2022-08-17T19:13:57.482Z,96645.09
2022-08-17T19:16:34.907Z,96647.19
2022-08-17T19:19:23.906Z,96651.25
2022-08-17T19:21:56.144Z,96663.13
2022-08-17T19:24:27.859Z,96666.63
2022-08-17T19:27:23.796Z,96669.41
2022-08-17T19:30:05.529Z,96673.56
2022-08-17T19:32:35.775Z,96665.88
2022-08-17T19:35:03.962Z,96674.22
2022-08-17T19:37:39.169Z,96675.59
2022-08-17T19:40:35.091Z,96676.94
2022-08-17T19:43:23.840Z,96675.53
2022-08-17T19:46:26.206Z,96676.91
2022-08-17T19:49:10.523Z,96663.63
2022-08-17T19:51:50.820Z,96660.13
2022-08-17T19:54:41.794Z,96662.22
2022-08-17T19:57:37.375Z,96664.28
2022-08-17T20:00:12.244Z,96667.06
2022-08-17T20:02:58.998Z,96660.75
2022-08-17T20:05:27.702Z,96668.44
2022-08-17T20:08:09.210Z,96665.63
2022-08-17T20:10:58.797Z,96671.16
2022-08-17T20:13:49.216Z,96666.91
2022-08-17T20:16:17.609Z,96667.53
2022-08-17T20:18:59.951Z,96659.06
2022-08-17T20:21:34.982Z,96657.66
2022-08-17T20:24:36.998Z,96661.16
2022-08-17T20:27:12.686Z,96675.13
2022-08-17T20:30:06.837Z,96675.81
2022-08-17T20:32:36.867Z,96679.28
2022-08-17T20:35:25.984Z,96679.97
2022-08-17T20:38:36.204Z,96686.94
2022-08-17T20:41:04.593Z,96695.41
2022-08-17T20:43:34.177Z,96694.56
2022-08-17T20:46:03.666Z,96694.50
2022-08-17T20:48:41.386Z,96688.97
2022-08-17T20:51:20.263Z,96684.16
2022-08-17T20:53:47.191Z,96685.56
2022-08-17T20:56:43.410Z,96690.44
2022-08-17T20:59:26.034Z,96687.66
2022-08-17T21:02:18.359Z,96685.56
2022-08-17T21:05:02.533Z,96695.34
2022-08-17T21:07:42.932Z,96693.97
2022-08-17T21:10:13.251Z,96693.22
2022-08-17T21:12:48.168Z,96700.91
2022-08-17T21:15:42.351Z,96713.47
2022-08-17T21:18:23.383Z,96713.47
2022-08-17T21:21:16.877Z,96726.03
2022-08-17T21:23:49.911Z,96726.09
2022-08-17T21:26:20.762Z,96736.63
2022-08-17T21:29:29.775Z,96745.06
2022-08-17T21:32:03.612Z,96756.31
2022-08-17T21:34:37.098Z,96756.34
2022-08-17T21:37:22.339Z,96760.53
2022-08-17T21:39:58.475Z,96759.16
2022-08-17T21:42:29.827Z,96762.63
2022-08-17T21:45:01.664Z,96772.38
2022-08-17T21:47:38.347Z,96777.09
2022-08-17T21:50:27.611Z,96784.56
2022-08-17T21:52:58.722Z,96789.25
2022-08-17T21:55:30.699Z,96796.06
2022-08-17T21:58:14.195Z,96795.22
2022-08-17T22:00:44.490Z,96799.25
2022-08-17T22:03:23.741Z,96800.50
2022-08-17T22:05:51.573Z,96806.72
2022-08-17T22:08:25.632Z,96810.88
2022-08-17T22:11:01.252Z,96820.56
2022-08-17T22:13:29.742Z,96816.31
2022-08-17T22:16:15.653Z,96816.91
2022-08-17T22:18:55.747Z,96824.56
2022-08-17T22:21:24.603Z,96823.78
2022-08-17T22:24:05.134Z,96825.81
2022-08-17T22:26:59.486Z,96829.28
2022-08-17T22:29:54.307Z,96824.31
2022-08-17T22:32:43.011Z,96819.28
2022-08-17T22:35:41.743Z,96828.22
2022-08-17T22:38:20.702Z,96835.84
2022-08-17T22:40:52.038Z,96835.78
2022-08-17T22:43:26.019Z,96839.94
2022-08-17T22:45:55.456Z,96837.09
2022-08-17T22:48:27.200Z,96843.34
2022-08-17T22:51:12.734Z,96846.75
2022-08-17T22:54:32.858Z,96842.50
2022-08-17T22:57:20.744Z,96842.38
2022-08-17T22:59:53.579Z,96839.34
2022-08-17T23:02:29.640Z,96844.06
2022-08-17T23:05:17.533Z,96828.53
2022-08-17T23:07:46.666Z,96833.31
2022-08-17T23:10:13.995Z,96831.25
2022-08-17T23:12:40.850Z,96838.31
2022-08-17T23:15:16.059Z,96833.50
2022-08-17T23:17:42.841Z,96833.53
2022-08-17T23:20:14.014Z,96834.28
2022-08-17T23:22:52.312Z,96834.31
2022-08-17T23:25:33.663Z,96839.97
2022-08-17T23:28:02.158Z,96839.25
2022-08-17T23:30:31.232Z,96845.47
2022-08-17T23:33:03.865Z,96841.97
2022-08-17T23:35:39.904Z,96846.16
2022-08-17T23:38:11.850Z,96841.19
2022-08-17T23:40:39.509Z,96833.53
2022-08-17T23:43:23.479Z,96848.13
2022-08-17T23:45:54.020Z,96847.44
2022-08-17T23:48:32.573Z,96847.94
2022-08-17T23:51:05.935Z,96853.56
2022-08-17T23:53:34.737Z,96855.63
2022-08-17T23:56:06.911Z,96847.91
2022-08-17T23:58:42.237Z,96853.50
